createdAt,value
2023-04-23T00:01:45.408Z,34.17
2023-04-23T00:04:12.436Z,35.00
2023-04-23T00:06:40.007Z,35.42
2023-04-23T00:09:08.005Z,34.42
2023-04-23T00:11:34.691Z,37.50
2023-04-23T00:14:01.381Z,34.60
2023-04-23T00:16:28.441Z,36.08
2023-04-23T00:18:54.825Z,36.70
2023-04-23T00:21:21.354Z,37.05
2023-04-23T00:23:47.748Z,36.83
2023-04-23T00:26:14.156Z,35.30
2023-04-23T00:28:40.648Z,37.10
2023-04-23T00:31:07.874Z,35.67
2023-04-23T00:33:34.378Z,38.00
2023-04-23T00:36:00.946Z,35.13
2023-04-23T00:38:27.545Z,35.67
2023-04-23T00:40:54.043Z,36.75
2023-04-23T00:43:20.650Z,39.33
2023-04-23T00:45:47.961Z,38.00
2023-04-23T00:48:14.934Z,38.63
2023-04-23T00:50:42.127Z,36.75
2023-04-23T00:53:09.019Z,34.97
2023-04-23T00:55:35.517Z,36.35
2023-04-23T00:58:02.217Z,37.40
2023-04-23T01:00:29.675Z,35.65
2023-04-23T01:02:58.300Z,35.83
2023-04-23T01:05:25.646Z,36.97
2023-04-23T01:07:52.213Z,38.83
2023-04-23T01:10:19.022Z,36.10
2023-04-23T01:12:45.990Z,35.80
2023-04-23T01:15:12.456Z,36.85
2023-04-23T01:17:39.087Z,36.50
2023-04-23T01:20:06.613Z,35.97
2023-04-23T01:22:36.515Z,36.37
2023-04-23T01:25:04.252Z,34.75
2023-04-23T01:27:31.114Z,35.65
2023-04-23T01:29:58.312Z,36.08
2023-04-23T01:32:25.074Z,38.20
2023-04-23T01:34:53.951Z,36.10
2023-04-23T01:37:21.256Z,37.90
2023-04-23T01:39:47.730Z,37.58
2023-04-23T01:42:14.697Z,36.92
2023-04-23T01:44:41.750Z,37.95
2023-04-23T01:47:08.496Z,38.08
2023-04-23T01:49:34.990Z,38.20
2023-04-23T01:52:01.669Z,38.55
2023-04-23T01:54:28.092Z,39.58
2023-04-23T01:56:56.030Z,39.05
2023-04-23T01:59:22.789Z,40.47
2023-04-23T02:01:50.150Z,38.03
2023-04-23T02:04:17.828Z,38.55
2023-04-23T02:06:47.681Z,38.73
2023-04-23T02:09:14.604Z,37.00
2023-04-23T02:11:41.205Z,38.72
2023-04-23T02:14:08.972Z,39.72
2023-04-23T02:16:36.506Z,38.92
2023-04-23T02:19:03.409Z,37.70
2023-04-23T02:21:30.119Z,38.50
2023-04-23T02:23:57.372Z,38.42
2023-04-23T02:26:25.132Z,38.95
2023-04-23T02:28:51.725Z,38.22
2023-04-23T02:31:18.762Z,39.88
2023-04-23T02:33:46.879Z,39.08
2023-04-23T02:36:13.283Z,38.70
2023-04-23T02:38:42.390Z,38.05
2023-04-23T02:41:08.961Z,38.28
2023-04-23T02:43:35.591Z,39.42
2023-04-23T02:46:08.614Z,40.03
2023-04-23T02:48:40.798Z,39.40
2023-04-23T02:51:09.826Z,39.92
2023-04-23T02:53:36.465Z,39.92
2023-04-23T02:56:03.022Z,39.22
2023-04-23T02:58:29.346Z,39.33
2023-04-23T03:00:55.927Z,39.22
2023-04-23T03:03:22.556Z,39.08
2023-04-23T03:05:49.046Z,37.42
2023-04-23T03:08:15.774Z,36.97
2023-04-23T03:10:42.231Z,38.97
2023-04-23T03:13:08.741Z,37.92
2023-04-23T03:15:35.421Z,37.05
2023-04-23T03:18:02.078Z,37.40
2023-04-23T03:20:28.506Z,37.53
2023-04-23T03:22:55.087Z,36.25
2023-04-23T03:25:23.728Z,35.72
2023-04-23T03:27:50.133Z,35.75
2023-04-23T03:30:16.839Z,36.65
2023-04-23T03:32:43.273Z,36.85
2023-04-23T03:35:10.017Z,35.55
2023-04-23T03:37:36.798Z,34.45
2023-04-23T03:40:07.447Z,34.83
2023-04-23T03:42:34.305Z,37.55
2023-04-23T03:45:01.550Z,36.00
2023-04-23T03:47:28.019Z,33.88
2023-04-23T03:49:54.862Z,32.83
2023-04-23T03:52:21.486Z,34.00
2023-04-23T03:54:47.860Z,32.10
2023-04-23T03:57:14.458Z,35.53
2023-04-23T03:59:40.810Z,33.70
2023-04-23T04:02:07.455Z,33.47
2023-04-23T04:04:34.566Z,32.28
2023-04-23T04:07:01.360Z,33.60
2023-04-23T04:09:28.728Z,33.00
2023-04-23T04:11:55.737Z,31.15
2023-04-23T04:14:23.324Z,30.95
2023-04-23T04:16:49.789Z,31.45
2023-04-23T04:19:16.302Z,29.08
2023-04-23T04:21:42.701Z,27.85
2023-04-23T04:24:11.549Z,29.45
2023-04-23T04:26:38.020Z,30.05
2023-04-23T04:29:04.616Z,29.33
2023-04-23T04:31:31.365Z,30.50
2023-04-23T04:33:58.343Z,27.15
2023-04-23T04:36:29.080Z,28.67
2023-04-23T04:38:58.670Z,27.05
2023-04-23T04:41:25.942Z,27.30
2023-04-23T04:43:52.718Z,26.02
2023-04-23T04:46:20.636Z,27.33
2023-04-23T04:48:48.104Z,26.73
2023-04-23T04:51:14.567Z,26.90
2023-04-23T04:53:41.215Z,27.20
2023-04-23T04:56:08.111Z,26.90
2023-04-23T04:58:34.777Z,27.50
2023-04-23T05:01:01.502Z,26.15
2023-04-23T05:03:28.267Z,25.52
2023-04-23T05:05:58.995Z,24.52
2023-04-23T05:08:25.555Z,23.60
2023-04-23T05:10:54.168Z,22.88
2023-04-23T05:15:47.004Z,21.90
2023-04-23T05:18:13.601Z,22.88
2023-04-23T05:20:41.310Z,23.02
2023-04-23T05:23:07.692Z,23.33
2023-04-23T05:25:35.813Z,23.30
2023-04-23T05:28:02.363Z,22.13
2023-04-23T05:30:29.033Z,22.50
2023-04-23T05:32:55.696Z,22.45
2023-04-23T05:35:22.154Z,22.70
2023-04-23T05:37:48.878Z,22.35
2023-04-23T05:40:15.428Z,22.38
2023-04-23T05:42:41.892Z,22.75
2023-04-23T05:45:09.432Z,22.50
2023-04-23T05:47:36.578Z,21.40
2023-04-23T05:50:03.048Z,21.08
2023-04-23T05:52:33.295Z,21.60
2023-04-23T05:54:59.612Z,21.05
2023-04-23T05:57:26.460Z,21.55
2023-04-23T05:59:52.867Z,21.10
2023-04-23T06:02:20.891Z,22.10
2023-04-23T06:04:49.148Z,21.95
2023-04-23T06:07:16.335Z,20.63
2023-04-23T06:09:42.742Z,21.70
2023-04-23T06:12:11.644Z,21.05
2023-04-23T06:14:38.092Z,20.73
2023-04-23T06:17:04.724Z,20.63
2023-04-23T06:19:31.427Z,20.02
2023-04-23T06:21:58.018Z,19.08
2023-04-23T06:24:24.397Z,18.77
2023-04-23T06:26:50.978Z,17.55
2023-04-23T06:29:17.607Z,17.35
2023-04-23T06:31:44.053Z,17.08
2023-04-23T06:34:10.612Z,16.80
2023-04-23T06:36:36.936Z,16.95
2023-04-23T06:39:03.557Z,15.70
2023-04-23T06:41:30.052Z,15.00
2023-04-23T06:43:58.625Z,14.95
2023-04-23T06:48:52.636Z,12.25
2023-04-23T06:51:19.095Z,12.57
2023-04-23T06:53:47.151Z,12.65
2023-04-23T06:56:13.567Z,12.50
2023-04-23T06:58:41.292Z,11.85
2023-04-23T07:01:08.014Z,12.02
2023-04-23T07:03:34.554Z,11.95
2023-04-23T07:06:01.342Z,11.93
2023-04-23T07:08:27.694Z,11.45
2023-04-23T07:10:54.340Z,11.60
2023-04-23T07:13:20.726Z,11.82
2023-04-23T07:15:47.199Z,11.15
2023-04-23T07:18:13.695Z,10.38
2023-04-23T07:20:40.245Z,11.00
2023-04-23T07:23:09.176Z,10.77
2023-04-23T07:25:35.758Z,10.32
2023-04-23T07:28:02.396Z,10.05
2023-04-23T07:30:31.066Z,9.70
2023-04-23T07:32:57.736Z,9.52
2023-04-23T07:35:26.880Z,9.88
2023-04-23T07:37:56.016Z,8.85
2023-04-23T07:40:23.123Z,9.50
2023-04-23T07:42:53.694Z,8.95
2023-04-23T07:45:20.155Z,9.35
2023-04-23T07:47:46.848Z,8.90
2023-04-23T07:50:14.016Z,8.60
2023-04-23T07:52:40.419Z,8.07
2023-04-23T07:55:07.838Z,8.70
2023-04-23T07:57:34.175Z,7.85
2023-04-23T08:00:00.813Z,8.15
2023-04-23T08:02:27.685Z,7.22
2023-04-23T08:04:54.381Z,8.10
2023-04-23T08:07:24.021Z,7.40
2023-04-23T08:09:50.753Z,7.22
2023-04-23T08:12:19.384Z,6.82
2023-04-23T08:14:47.312Z,6.93
2023-04-23T08:17:13.719Z,5.88
2023-04-23T08:19:40.240Z,6.10
2023-04-23T08:22:09.911Z,6.65
2023-04-23T08:24:36.543Z,7.05
2023-04-23T08:27:03.012Z,6.07
2023-04-23T08:29:29.428Z,6.22
2023-04-23T08:31:56.106Z,5.68
2023-04-23T08:34:22.788Z,5.57
2023-04-23T08:36:51.985Z,5.57
2023-04-23T08:39:18.673Z,5.82
2023-04-23T08:41:52.393Z,5.18
2023-04-23T08:44:23.349Z,4.55
2023-04-23T08:46:52.829Z,4.57
2023-04-23T08:49:20.688Z,5.03
2023-04-23T08:51:53.235Z,5.00
2023-04-23T08:54:27.172Z,4.70
2023-04-23T08:57:00.821Z,4.32
2023-04-23T08:59:31.898Z,4.78
2023-04-23T09:02:00.898Z,4.60
2023-04-23T09:04:28.339Z,5.40
2023-04-23T09:06:56.262Z,4.78
2023-04-23T09:09:23.817Z,4.15
2023-04-23T09:11:51.732Z,4.77
2023-04-23T09:14:19.837Z,3.80
2023-04-23T09:16:46.449Z,4.35
2023-04-23T09:19:13.634Z,4.15
2023-04-23T09:21:43.018Z,3.30
2023-04-23T09:24:13.110Z,3.80
2023-04-23T09:26:47.016Z,5.10
2023-04-23T09:29:17.353Z,3.95
2023-04-23T09:31:49.612Z,4.50
2023-04-23T09:34:18.247Z,4.18
2023-04-23T09:37:19.200Z,16.75
2023-04-23T09:39:57.204Z,5.28
2023-04-23T09:42:24.304Z,6.22
2023-04-23T09:44:58.722Z,11.60
2023-04-23T09:47:25.975Z,8.23
2023-04-23T09:49:53.127Z,4.22
2023-04-23T09:52:19.685Z,9.55
2023-04-23T09:54:46.682Z,5.20
2023-04-23T09:57:13.821Z,4.20
2023-04-23T10:02:13.383Z,2.92
2023-04-23T10:04:40.448Z,3.15
2023-04-23T10:07:18.924Z,2.70
2023-04-23T10:09:48.155Z,2.83
2023-04-23T10:14:46.709Z,2.30
2023-04-23T10:17:13.765Z,2.17
2023-04-23T10:19:44.291Z,2.20
2023-04-23T10:24:48.606Z,2.22
2023-04-23T10:27:30.711Z,2.58
2023-04-23T10:30:06.434Z,2.22
2023-04-23T10:32:37.361Z,2.22
2023-04-23T10:35:04.712Z,2.47
2023-04-23T10:37:31.568Z,2.50
2023-04-23T10:40:04.601Z,2.20
2023-04-23T10:42:31.768Z,2.55
2023-04-23T10:45:04.785Z,3.35
2023-04-23T10:50:24.125Z,2.60
2023-04-23T10:52:53.355Z,2.42
2023-04-23T10:55:28.652Z,2.28
2023-04-23T10:58:06.307Z,2.40
2023-04-23T11:00:46.447Z,2.50
2023-04-23T11:03:44.477Z,4.05
2023-04-23T11:06:19.383Z,2.50
2023-04-23T11:08:53.703Z,2.35
2023-04-23T11:11:38.390Z,2.63
2023-04-23T11:14:14.156Z,2.55
2023-04-23T11:16:41.218Z,1.88
2023-04-23T11:19:17.303Z,2.05
2023-04-23T11:21:59.941Z,1.77
2023-04-23T11:24:41.514Z,1.83
2023-04-23T11:27:13.916Z,1.70
2023-04-23T11:29:42.345Z,1.70
2023-04-23T11:34:41.796Z,1.98
2023-04-23T11:37:10.873Z,1.65
2023-04-23T11:39:37.546Z,1.63
2023-04-23T11:42:06.339Z,1.80
2023-04-23T11:44:32.705Z,1.90
2023-04-23T11:47:02.091Z,1.90
2023-04-23T11:49:28.490Z,2.45
2023-04-23T11:51:55.006Z,1.83
2023-04-23T11:54:27.654Z,1.70
2023-04-23T11:56:55.207Z,1.65
2023-04-23T11:59:21.944Z,1.77
2023-04-23T12:01:51.790Z,2.17
2023-04-23T12:04:26.210Z,1.90
2023-04-23T12:06:54.924Z,1.70
2023-04-23T12:11:51.177Z,1.60
2023-04-23T12:14:20.987Z,1.42
2023-04-23T12:16:52.086Z,1.90
2023-04-23T12:19:20.998Z,1.70
2023-04-23T12:21:54.664Z,1.20
2023-04-23T12:24:52.563Z,1.60
2023-04-23T12:27:22.088Z,1.65
2023-04-23T12:29:49.390Z,1.73
2023-04-23T12:32:16.010Z,1.40
2023-04-23T12:34:53.340Z,1.40
2023-04-23T12:37:24.213Z,1.40
2023-04-23T12:39:50.811Z,1.77
2023-04-23T12:42:17.296Z,2.42
2023-04-23T12:44:45.087Z,2.10
2023-04-23T12:47:11.797Z,1.85
2023-04-23T12:49:40.685Z,2.70
2023-04-23T12:52:07.926Z,1.30
2023-04-23T12:54:40.752Z,1.30
2023-04-23T12:57:09.913Z,1.20
2023-04-23T12:59:36.404Z,0.98
2023-04-23T13:02:04.659Z,0.75
2023-04-23T13:04:33.170Z,0.90
2023-04-23T13:06:59.865Z,1.30
2023-04-23T13:09:28.375Z,0.82
2023-04-23T13:14:21.698Z,1.20
2023-04-23T13:16:48.970Z,1.10
2023-04-23T13:19:17.507Z,1.15
2023-04-23T13:24:10.753Z,1.30
2023-04-23T13:26:37.372Z,0.90
2023-04-23T13:29:03.857Z,0.85
2023-04-23T13:31:32.422Z,1.10
2023-04-23T13:36:25.547Z,0.90
2023-04-23T13:38:52.871Z,1.17
2023-04-23T13:41:19.714Z,1.00
2023-04-23T13:43:46.304Z,1.05
2023-04-23T13:46:14.434Z,0.98
2023-04-23T13:48:41.676Z,0.90
2023-04-23T13:51:17.974Z,1.10
2023-04-23T13:53:54.682Z,1.20
2023-04-23T13:56:21.058Z,1.05
2023-04-23T13:58:49.020Z,1.40
2023-04-23T14:01:16.175Z,1.17
2023-04-23T14:03:42.783Z,1.15
2023-04-23T14:06:11.513Z,0.93
2023-04-23T14:08:38.301Z,1.15
2023-04-23T14:11:04.929Z,0.70
2023-04-23T14:13:32.964Z,1.15
2023-04-23T14:16:02.041Z,1.10
2023-04-23T14:18:30.087Z,0.95
2023-04-23T14:20:58.096Z,1.80
2023-04-23T14:23:25.305Z,1.00
2023-04-23T14:26:04.307Z,1.45
2023-04-23T14:28:39.337Z,0.98
2023-04-23T14:31:06.280Z,1.20
2023-04-23T14:33:32.971Z,0.98
2023-04-23T14:36:00.217Z,1.10
2023-04-23T14:38:26.759Z,1.05
2023-04-23T14:40:55.712Z,0.95
2023-04-23T14:43:22.301Z,1.30
2023-04-23T14:45:48.817Z,0.70
2023-04-23T14:48:15.429Z,1.05
2023-04-23T14:50:42.153Z,0.70
2023-04-23T14:53:10.570Z,0.90
2023-04-23T14:58:03.433Z,1.27
2023-04-23T15:00:30.371Z,0.77
2023-04-23T15:02:57.211Z,1.17
2023-04-23T15:05:24.049Z,0.95
2023-04-23T15:07:51.831Z,0.90
2023-04-23T15:10:19.381Z,0.90
2023-04-23T15:12:53.480Z,0.85
2023-04-23T15:15:37.054Z,1.02
2023-04-23T15:18:07.793Z,1.20
2023-04-23T15:20:34.297Z,1.08
2023-04-23T15:23:00.962Z,1.45
2023-04-23T15:25:27.821Z,1.50
2023-04-23T15:28:00.069Z,0.90
2023-04-23T15:30:27.589Z,1.08
2023-04-23T15:32:57.573Z,1.00
2023-04-23T15:35:25.346Z,1.20
2023-04-23T15:37:54.466Z,1.15
2023-04-23T15:40:21.253Z,1.00
2023-04-23T15:42:50.106Z,1.10
2023-04-23T15:45:17.218Z,1.10
2023-04-23T15:47:46.257Z,1.67
2023-04-23T15:50:13.142Z,1.25
2023-04-23T15:52:41.393Z,1.25
2023-04-23T15:55:08.220Z,1.50
2023-04-23T15:57:34.835Z,1.55
2023-04-23T16:00:02.390Z,1.58
2023-04-23T16:02:28.976Z,1.45
2023-04-23T16:04:55.865Z,1.50
2023-04-23T16:07:22.418Z,1.50
2023-04-23T16:09:49.408Z,1.67
2023-04-23T16:12:15.776Z,1.70
2023-04-23T16:14:43.007Z,1.48
2023-04-23T16:17:09.814Z,1.30
2023-04-23T16:19:36.352Z,1.45
2023-04-23T16:22:02.769Z,1.73
2023-04-23T16:24:29.733Z,1.48
2023-04-23T16:26:56.148Z,1.50
2023-04-23T16:29:23.180Z,1.30
2023-04-23T16:31:50.416Z,1.30
2023-04-23T16:34:17.194Z,1.10
2023-04-23T16:36:44.895Z,1.20
2023-04-23T16:39:12.399Z,1.23
2023-04-23T16:41:39.759Z,1.23
2023-04-23T16:44:06.243Z,1.60
2023-04-23T16:46:33.024Z,1.60
2023-04-23T16:48:59.860Z,1.60
2023-04-23T16:51:27.056Z,1.92
2023-04-23T16:53:54.082Z,1.33
2023-04-23T16:56:20.952Z,1.67
2023-04-23T16:58:47.652Z,1.63
2023-04-23T17:01:14.842Z,1.63
2023-04-23T17:03:41.504Z,1.63
2023-04-23T17:06:10.013Z,1.88
2023-04-23T17:08:37.243Z,1.50
2023-04-23T17:11:11.578Z,1.30
2023-04-23T17:13:38.978Z,1.25
2023-04-23T17:16:05.518Z,1.20
2023-04-23T17:18:32.338Z,1.85
2023-04-23T17:20:58.744Z,1.63
2023-04-23T17:23:25.174Z,1.80
2023-04-23T17:25:51.936Z,1.35
2023-04-23T17:28:20.305Z,5.32
2023-04-23T17:30:50.826Z,4.07
2023-04-23T17:33:17.875Z,3.92
2023-04-23T17:35:44.326Z,2.38
2023-04-23T17:38:11.798Z,2.53
2023-04-23T17:40:39.423Z,1.70
2023-04-23T17:43:06.241Z,1.37
2023-04-23T17:45:32.721Z,1.38
2023-04-23T17:47:59.182Z,1.10
2023-04-23T17:50:25.746Z,1.63
2023-04-23T17:52:52.418Z,1.15
2023-04-23T17:55:21.737Z,1.48
2023-04-23T17:57:49.145Z,2.85
2023-04-23T18:00:17.407Z,1.45
2023-04-23T18:02:44.758Z,1.23
2023-04-23T18:05:14.721Z,1.45
2023-04-23T18:07:42.666Z,1.25
2023-04-23T18:10:13.996Z,1.20
2023-04-23T18:12:41.697Z,1.20
2023-04-23T18:15:11.274Z,1.60
2023-04-23T18:17:39.428Z,1.40
2023-04-23T18:20:06.658Z,1.60
2023-04-23T18:22:33.493Z,2.15
2023-04-23T18:24:59.846Z,1.60
2023-04-23T18:27:34.644Z,1.90
2023-04-23T18:30:02.444Z,1.90
2023-04-23T18:32:35.162Z,1.88
2023-04-23T18:35:02.812Z,1.42
2023-04-23T18:37:44.006Z,2.38
2023-04-23T18:40:11.394Z,1.70
2023-04-23T18:42:39.246Z,2.03
2023-04-23T18:45:06.454Z,1.60
2023-04-23T18:47:38.739Z,1.58
2023-04-23T18:50:36.364Z,1.65
2023-04-23T18:53:03.165Z,2.70
2023-04-23T18:55:29.498Z,2.15
2023-04-23T18:57:56.170Z,2.47
2023-04-23T19:00:23.016Z,2.80
2023-04-23T19:02:52.532Z,2.15
2023-04-23T19:05:19.871Z,2.33
2023-04-23T19:07:48.224Z,3.38
2023-04-23T19:10:16.146Z,3.28
2023-04-23T19:12:43.597Z,2.65
2023-04-23T19:15:11.017Z,2.00
2023-04-23T19:17:38.698Z,1.58
2023-04-23T19:20:09.265Z,1.38
2023-04-23T19:22:35.911Z,1.40
2023-04-23T19:25:02.854Z,1.42
2023-04-23T19:27:29.213Z,1.10
2023-04-23T19:29:57.696Z,1.85
2023-04-23T19:34:52.140Z,1.40
2023-04-23T19:37:18.582Z,1.20
2023-04-23T19:39:45.461Z,1.42
2023-04-23T19:42:12.143Z,1.30
2023-04-23T19:44:38.718Z,2.00
2023-04-23T19:47:07.400Z,1.45
2023-04-23T19:49:33.955Z,1.30
2023-04-23T19:52:03.851Z,1.30
2023-04-23T19:54:30.572Z,1.15
2023-04-23T19:56:58.584Z,1.30
2023-04-23T19:59:25.182Z,1.40
2023-04-23T20:01:53.857Z,1.40
2023-04-23T20:06:48.689Z,1.15
2023-04-23T20:09:18.800Z,1.42
2023-04-23T20:11:46.053Z,1.30
2023-04-23T20:14:13.224Z,1.10
2023-04-23T20:16:42.758Z,1.10
2023-04-23T20:19:15.313Z,1.40
2023-04-23T20:21:42.936Z,1.30
2023-04-23T20:24:10.571Z,1.27
2023-04-23T20:26:41.403Z,1.33
2023-04-23T20:29:08.133Z,1.20
2023-04-23T20:31:37.318Z,1.33
2023-04-23T20:34:03.800Z,1.42
2023-04-23T20:36:33.125Z,1.60
2023-04-23T20:39:06.055Z,1.50
2023-04-23T20:41:36.438Z,1.30
2023-04-23T20:44:07.327Z,1.10
2023-04-23T20:46:33.812Z,1.27
2023-04-23T20:49:05.096Z,1.40
2023-04-23T20:51:35.240Z,1.30
2023-04-23T20:54:08.325Z,1.65
2023-04-23T20:56:35.944Z,1.17
2023-04-23T20:59:08.132Z,1.60
2023-04-23T21:01:37.964Z,1.50
2023-04-23T21:04:07.322Z,1.33
2023-04-23T21:06:34.297Z,1.10
2023-04-23T21:09:00.765Z,1.55
2023-04-23T21:11:28.825Z,1.50
2023-04-23T21:13:58.086Z,0.95
2023-04-23T21:16:27.324Z,0.90
2023-04-23T21:18:54.007Z,1.02
2023-04-23T21:21:27.314Z,0.85
2023-04-23T21:23:53.660Z,1.15
2023-04-23T21:26:21.076Z,1.20
2023-04-23T21:28:51.506Z,1.00
2023-04-23T21:31:30.128Z,1.00
2023-04-23T21:33:56.969Z,1.38
2023-04-23T21:36:23.945Z,1.25
2023-04-23T21:38:55.882Z,0.90
2023-04-23T21:41:22.297Z,0.57
2023-04-23T21:43:49.088Z,0.80
2023-04-23T21:46:16.139Z,0.80
2023-04-23T21:48:42.704Z,0.70
2023-04-23T21:51:09.351Z,0.85
2023-04-23T21:53:38.789Z,0.80
2023-04-23T21:56:06.720Z,0.90
2023-04-23T21:58:34.650Z,0.75
2023-04-23T22:01:01.469Z,0.70
2023-04-23T22:03:36.497Z,0.82
2023-04-23T22:06:06.821Z,0.80
2023-04-23T22:08:34.665Z,0.80
2023-04-23T22:11:01.107Z,0.70
2023-04-23T22:13:28.953Z,0.73
2023-04-23T22:15:58.573Z,0.80
2023-04-23T22:18:28.728Z,0.70
2023-04-23T22:20:57.250Z,0.80
2023-04-23T22:23:24.846Z,0.77
2023-04-23T22:25:54.114Z,0.73
2023-04-23T22:28:20.530Z,0.40
2023-04-23T22:30:48.813Z,0.60
2023-04-23T22:33:16.442Z,0.80
2023-04-23T22:35:44.956Z,0.43
2023-04-23T22:40:40.785Z,0.40
2023-04-23T22:46:02.696Z,0.28
2023-04-23T22:48:32.696Z,0.50
2023-04-23T22:50:59.231Z,0.35
2023-04-23T22:53:25.842Z,0.70
2023-04-23T22:55:52.707Z,0.50
2023-04-23T22:58:20.714Z,0.50
2023-04-23T23:00:47.734Z,0.30
2023-04-23T23:03:16.121Z,0.60
2023-04-23T23:05:42.866Z,0.50
2023-04-23T23:08:09.506Z,0.50
2023-04-23T23:10:35.965Z,0.50
2023-04-23T23:13:04.855Z,0.50
2023-04-23T23:15:33.337Z,0.50
2023-04-23T23:20:28.398Z,0.75
2023-04-23T23:22:57.106Z,0.50
2023-04-23T23:25:24.718Z,0.47
2023-04-23T23:27:51.542Z,0.47
2023-04-23T23:30:17.953Z,0.55
2023-04-23T23:32:47.341Z,0.50
2023-04-23T23:35:18.606Z,0.70
2023-04-23T23:37:47.948Z,0.77
2023-04-23T23:40:14.397Z,0.40
2023-04-23T23:42:43.304Z,0.47
2023-04-23T23:45:12.714Z,0.50
2023-04-23T23:47:43.899Z,0.60
2023-04-23T23:50:11.306Z,0.50
2023-04-23T23:52:37.760Z,0.45
2023-04-23T23:55:04.766Z,0.50
2023-04-23T23:57:31.438Z,0.63
2023-04-23T23:59:58.041Z,0.63
